sensor_id;sensor_type;location;lat;lon;timestamp;pressure;altitude;pressure_sealevel;temperature;humidity
39555;BME280;25231;48.746;9.234;2023-03-13T00:01:24;96265.38;;;7.45;100.00
39555;BME280;25231;48.746;9.234;2023-03-13T00:03:51;96263.19;;;7.42;100.00
39555;BME280;25231;48.746;9.234;2023-03-13T00:06:17;96265.00;;;7.41;100.00
39555;BME280;25231;48.746;9.234;2023-03-13T00:08:43;96260.69;;;7.35;100.00
39555;BME280;25231;48.746;9.234;2023-03-13T00:11:10;96264.66;;;7.38;100.00
39555;BME280;25231;48.746;9.234;2023-03-13T00:13:36;96259.09;;;7.34;100.00
39555;BME280;25231;48.746;9.234;2023-03-13T00:16:07;96267.94;;;7.33;100.00
39555;BME280;25231;48.746;9.234;2023-03-13T00:18:33;96252.50;;;7.32;100.00
39555;BME280;25231;48.746;9.234;2023-03-13T00:21:07;96256.34;;;7.29;100.00
39555;BME280;25231;48.746;9.234;2023-03-13T00:23:35;96253.50;;;7.31;100.00
39555;BME280;25231;48.746;9.234;2023-03-13T00:26:03;96250.75;;;7.26;100.00
39555;BME280;25231;48.746;9.234;2023-03-13T00:28:32;96259.91;;;7.35;100.00
39555;BME280;25231;48.746;9.234;2023-03-13T00:31:18;96254.91;;;7.33;100.00
39555;BME280;25231;48.746;9.234;2023-03-13T00:33:48;96249.91;;;7.32;100.00
39555;BME280;25231;48.746;9.234;2023-03-13T00:36:23;96254.69;;;7.35;100.00
39555;BME280;25231;48.746;9.234;2023-03-13T00:38:50;96243.38;;;7.41;100.00
39555;BME280;25231;48.746;9.234;2023-03-13T00:41:19;96243.22;;;7.36;100.00
39555;BME280;25231;48.746;9.234;2023-03-13T00:43:46;96248.88;;;7.33;100.00
39555;BME280;25231;48.746;9.234;2023-03-13T00:46:14;96246.63;;;7.36;100.00
39555;BME280;25231;48.746;9.234;2023-03-13T00:48:40;96244.25;;;7.35;100.00
39555;BME280;25231;48.746;9.234;2023-03-13T00:51:05;96237.72;;;7.44;100.00
39555;BME280;25231;48.746;9.234;2023-03-13T00:53:31;96229.94;;;7.56;100.00
39555;BME280;25231;48.746;9.234;2023-03-13T00:56:02;96223.47;;;7.46;100.00
39555;BME280;25231;48.746;9.234;2023-03-13T00:58:29;96230.09;;;7.42;100.00
39555;BME280;25231;48.746;9.234;2023-03-13T01:00:56;96230.03;;;7.49;100.00
39555;BME280;25231;48.746;9.234;2023-03-13T01:03:22;96226.94;;;7.40;100.00
39555;BME280;25231;48.746;9.234;2023-03-13T01:05:56;96218.66;;;7.43;100.00
39555;BME280;25231;48.746;9.234;2023-03-13T01:08:21;96220.31;;;7.56;100.00
39555;BME280;25231;48.746;9.234;2023-03-13T01:10:47;96210.06;;;7.43;100.00
39555;BME280;25231;48.746;9.234;2023-03-13T01:13:12;96198.41;;;7.45;100.00
39555;BME280;25231;48.746;9.234;2023-03-13T01:15:38;96198.75;;;7.49;100.00
39555;BME280;25231;48.746;9.234;2023-03-13T01:18:03;96194.94;;;7.33;100.00
39555;BME280;25231;48.746;9.234;2023-03-13T01:20:29;96192.00;;;7.41;100.00
39555;BME280;25231;48.746;9.234;2023-03-13T01:22:55;96183.09;;;7.49;100.00
39555;BME280;25231;48.746;9.234;2023-03-13T01:25:20;96180.34;;;7.44;100.00
39555;BME280;25231;48.746;9.234;2023-03-13T01:27:45;96171.91;;;7.30;100.00
39555;BME280;25231;48.746;9.234;2023-03-13T01:30:11;96167.88;;;7.34;100.00
39555;BME280;25231;48.746;9.234;2023-03-13T01:32:37;96167.91;;;7.46;100.00
39555;BME280;25231;48.746;9.234;2023-03-13T01:35:02;96159.28;;;7.45;100.00
39555;BME280;25231;48.746;9.234;2023-03-13T01:37:28;96160.88;;;7.46;100.00
39555;BME280;25231;48.746;9.234;2023-03-13T01:39:53;96165.19;;;7.41;100.00
39555;BME280;25231;48.746;9.234;2023-03-13T01:42:18;96158.13;;;7.41;100.00
39555;BME280;25231;48.746;9.234;2023-03-13T01:44:49;96145.47;;;7.45;100.00
39555;BME280;25231;48.746;9.234;2023-03-13T01:47:15;96142.31;;;7.55;100.00
39555;BME280;25231;48.746;9.234;2023-03-13T01:49:41;96133.34;;;7.50;100.00
39555;BME280;25231;48.746;9.234;2023-03-13T01:52:25;96131.84;;;7.43;100.00
39555;BME280;25231;48.746;9.234;2023-03-13T01:54:56;96138.53;;;7.39;100.00
39555;BME280;25231;48.746;9.234;2023-03-13T01:57:39;96123.72;;;7.51;100.00
39555;BME280;25231;48.746;9.234;2023-03-13T02:00:09;96109.00;;;7.57;100.00
39555;BME280;25231;48.746;9.234;2023-03-13T02:02:37;96108.63;;;7.53;100.00
39555;BME280;25231;48.746;9.234;2023-03-13T02:05:06;96097.75;;;7.56;100.00
39555;BME280;25231;48.746;9.234;2023-03-13T02:07:42;96098.09;;;7.60;100.00
39555;BME280;25231;48.746;9.234;2023-03-13T02:10:10;96091.19;;;7.65;100.00
39555;BME280;25231;48.746;9.234;2023-03-13T02:12:39;96086.97;;;7.64;100.00
39555;BME280;25231;48.746;9.234;2023-03-13T02:15:08;96093.00;;;7.65;100.00
39555;BME280;25231;48.746;9.234;2023-03-13T02:17:35;96084.75;;;7.68;100.00
39555;BME280;25231;48.746;9.234;2023-03-13T02:20:02;96080.41;;;7.62;100.00
39555;BME280;25231;48.746;9.234;2023-03-13T02:28:29;96086.75;;;7.66;100.00
39555;BME280;25231;48.746;9.234;2023-03-13T02:30:58;96083.16;;;7.67;100.00
39555;BME280;25231;48.746;9.234;2023-03-13T02:33:29;96087.47;;;7.73;100.00
39555;BME280;25231;48.746;9.234;2023-03-13T02:35:56;96074.88;;;7.81;100.00
39555;BME280;25231;48.746;9.234;2023-03-13T02:38:28;96077.03;;;7.84;100.00
39555;BME280;25231;48.746;9.234;2023-03-13T02:40:54;96070.44;;;7.93;100.00
39555;BME280;25231;48.746;9.234;2023-03-13T02:43:25;96070.13;;;8.02;100.00
39555;BME280;25231;48.746;9.234;2023-03-13T02:46:07;96064.00;;;8.08;100.00
39555;BME280;25231;48.746;9.234;2023-03-13T02:48:39;96055.59;;;8.06;100.00
39555;BME280;25231;48.746;9.234;2023-03-13T02:51:26;96050.34;;;8.17;100.00
39555;BME280;25231;48.746;9.234;2023-03-13T02:54:02;96043.88;;;8.20;100.00
39555;BME280;25231;48.746;9.234;2023-03-13T02:56:32;96042.16;;;8.25;100.00
39555;BME280;25231;48.746;9.234;2023-03-13T02:59:18;96030.69;;;8.26;100.00
39555;BME280;25231;48.746;9.234;2023-03-13T03:01:43;96025.38;;;8.21;100.00
39555;BME280;25231;48.746;9.234;2023-03-13T03:04:10;96027.88;;;8.28;100.00
39555;BME280;25231;48.746;9.234;2023-03-13T03:06:35;96018.13;;;8.35;100.00
39555;BME280;25231;48.746;9.234;2023-03-13T03:09:01;96012.09;;;8.34;100.00
39555;BME280;25231;48.746;9.234;2023-03-13T03:11:27;96008.00;;;8.27;100.00
39555;BME280;25231;48.746;9.234;2023-03-13T03:13:53;96004.03;;;8.36;100.00
39555;BME280;25231;48.746;9.234;2023-03-13T03:16:18;95995.66;;;8.34;100.00
39555;BME280;25231;48.746;9.234;2023-03-13T03:18:45;95995.16;;;8.37;100.00
39555;BME280;25231;48.746;9.234;2023-03-13T03:21:11;95994.38;;;8.37;100.00
39555;BME280;25231;48.746;9.234;2023-03-13T03:23:36;95994.16;;;8.38;100.00
39555;BME280;25231;48.746;9.234;2023-03-13T03:26:03;95990.53;;;8.39;100.00
39555;BME280;25231;48.746;9.234;2023-03-13T03:28:34;95994.03;;;8.45;100.00
39555;BME280;25231;48.746;9.234;2023-03-13T03:31:10;95987.91;;;8.39;100.00
39555;BME280;25231;48.746;9.234;2023-03-13T03:33:37;95985.31;;;8.39;100.00
39555;BME280;25231;48.746;9.234;2023-03-13T03:36:05;95980.50;;;8.48;100.00
39555;BME280;25231;48.746;9.234;2023-03-13T03:38:31;95980.75;;;8.46;100.00
39555;BME280;25231;48.746;9.234;2023-03-13T03:40:57;95975.88;;;8.38;100.00
39555;BME280;25231;48.746;9.234;2023-03-13T03:43:23;95971.75;;;8.42;100.00
39555;BME280;25231;48.746;9.234;2023-03-13T03:45:48;95973.34;;;8.43;100.00
39555;BME280;25231;48.746;9.234;2023-03-13T03:48:13;95973.94;;;8.45;100.00
39555;BME280;25231;48.746;9.234;2023-03-13T03:50:39;95966.63;;;8.47;100.00
39555;BME280;25231;48.746;9.234;2023-03-13T03:53:04;95966.19;;;8.50;100.00
39555;BME280;25231;48.746;9.234;2023-03-13T03:55:30;95972.88;;;8.58;100.00
39555;BME280;25231;48.746;9.234;2023-03-13T03:57:55;95972.06;;;8.57;100.00
39555;BME280;25231;48.746;9.234;2023-03-13T04:00:22;95961.47;;;8.64;100.00
39555;BME280;25231;48.746;9.234;2023-03-13T04:02:47;95975.53;;;8.74;100.00
39555;BME280;25231;48.746;9.234;2023-03-13T04:05:13;95969.81;;;8.77;100.00
39555;BME280;25231;48.746;9.234;2023-03-13T04:07:39;95974.09;;;8.84;100.00
39555;BME280;25231;48.746;9.234;2023-03-13T04:10:05;95968.72;;;8.90;100.00
39555;BME280;25231;48.746;9.234;2023-03-13T04:12:30;95976.16;;;8.98;100.00
39555;BME280;25231;48.746;9.234;2023-03-13T04:14:56;95974.13;;;9.00;100.00
39555;BME280;25231;48.746;9.234;2023-03-13T04:17:21;95963.03;;;9.10;100.00
39555;BME280;25231;48.746;9.234;2023-03-13T04:19:47;95958.03;;;9.08;100.00
39555;BME280;25231;48.746;9.234;2023-03-13T04:22:12;95959.00;;;9.19;100.00
39555;BME280;25231;48.746;9.234;2023-03-13T04:24:37;95964.31;;;9.24;100.00
39555;BME280;25231;48.746;9.234;2023-03-13T04:27:03;95955.34;;;9.20;100.00
39555;BME280;25231;48.746;9.234;2023-03-13T04:29:34;95955.25;;;9.32;100.00
39555;BME280;25231;48.746;9.234;2023-03-13T04:31:59;95954.88;;;9.40;100.00
39555;BME280;25231;48.746;9.234;2023-03-13T04:34:25;95963.34;;;9.47;100.00
39555;BME280;25231;48.746;9.234;2023-03-13T04:36:50;95963.88;;;9.49;100.00
39555;BME280;25231;48.746;9.234;2023-03-13T04:39:16;95945.47;;;9.60;100.00
39555;BME280;25231;48.746;9.234;2023-03-13T04:41:41;95935.31;;;9.64;100.00
39555;BME280;25231;48.746;9.234;2023-03-13T04:44:07;95942.94;;;9.66;100.00
39555;BME280;25231;48.746;9.234;2023-03-13T04:46:32;95940.09;;;9.67;100.00
39555;BME280;25231;48.746;9.234;2023-03-13T04:48:57;95945.56;;;9.66;100.00
39555;BME280;25231;48.746;9.234;2023-03-13T04:51:23;95950.06;;;9.70;100.00
39555;BME280;25231;48.746;9.234;2023-03-13T04:53:49;95945.31;;;9.67;100.00
39555;BME280;25231;48.746;9.234;2023-03-13T04:56:21;95948.72;;;9.68;100.00
39555;BME280;25231;48.746;9.234;2023-03-13T04:58:47;95944.59;;;9.72;100.00
39555;BME280;25231;48.746;9.234;2023-03-13T05:01:13;95943.56;;;9.73;100.00
39555;BME280;25231;48.746;9.234;2023-03-13T05:03:38;95948.63;;;9.79;100.00
39555;BME280;25231;48.746;9.234;2023-03-13T05:06:04;95938.09;;;9.74;100.00
39555;BME280;25231;48.746;9.234;2023-03-13T05:08:35;95946.19;;;9.73;100.00
39555;BME280;25231;48.746;9.234;2023-03-13T05:11:01;95934.69;;;9.74;100.00
39555;BME280;25231;48.746;9.234;2023-03-13T05:13:27;95943.41;;;9.79;100.00
39555;BME280;25231;48.746;9.234;2023-03-13T05:18:21;95942.50;;;9.90;100.00
39555;BME280;25231;48.746;9.234;2023-03-13T05:20:47;95949.78;;;9.88;100.00
39555;BME280;25231;48.746;9.234;2023-03-13T05:23:12;95944.50;;;9.83;100.00
39555;BME280;25231;48.746;9.234;2023-03-13T05:25:37;95932.25;;;9.89;100.00
39555;BME280;25231;48.746;9.234;2023-03-13T05:28:03;95932.25;;;9.89;100.00
39555;BME280;25231;48.746;9.234;2023-03-13T05:30:29;95936.69;;;9.88;100.00
39555;BME280;25231;48.746;9.234;2023-03-13T05:32:54;95944.31;;;9.90;100.00
39555;BME280;25231;48.746;9.234;2023-03-13T05:35:19;95956.38;;;9.91;100.00
39555;BME280;25231;48.746;9.234;2023-03-13T05:37:45;95952.47;;;9.93;100.00
39555;BME280;25231;48.746;9.234;2023-03-13T05:40:11;95934.47;;;9.97;100.00
39555;BME280;25231;48.746;9.234;2023-03-13T05:42:37;95930.78;;;9.98;100.00
39555;BME280;25231;48.746;9.234;2023-03-13T05:45:03;95937.31;;;9.95;100.00
39555;BME280;25231;48.746;9.234;2023-03-13T05:47:28;95930.78;;;9.98;100.00
39555;BME280;25231;48.746;9.234;2023-03-13T05:49:54;95931.34;;;10.00;100.00
39555;BME280;25231;48.746;9.234;2023-03-13T05:52:19;95921.66;;;10.00;100.00
39555;BME280;25231;48.746;9.234;2023-03-13T05:54:45;95930.63;;;10.05;100.00
39555;BME280;25231;48.746;9.234;2023-03-13T05:57:11;95924.09;;;10.07;100.00
39555;BME280;25231;48.746;9.234;2023-03-13T05:59:37;95921.22;;;10.09;100.00
39555;BME280;25231;48.746;9.234;2023-03-13T06:02:02;95917.84;;;10.08;100.00
39555;BME280;25231;48.746;9.234;2023-03-13T06:04:28;95910.22;;;10.07;100.00
39555;BME280;25231;48.746;9.234;2023-03-13T06:06:53;95914.72;;;10.11;100.00
39555;BME280;25231;48.746;9.234;2023-03-13T06:09:19;95922.06;;;10.14;100.00
39555;BME280;25231;48.746;9.234;2023-03-13T06:11:44;95923.94;;;10.14;100.00
39555;BME280;25231;48.746;9.234;2023-03-13T06:14:10;95923.28;;;10.23;100.00
39555;BME280;25231;48.746;9.234;2023-03-13T06:16:35;95923.81;;;10.25;100.00
39555;BME280;25231;48.746;9.234;2023-03-13T06:19:00;95914.00;;;10.37;100.00
39555;BME280;25231;48.746;9.234;2023-03-13T06:21:28;95925.03;;;10.39;100.00
39555;BME280;25231;48.746;9.234;2023-03-13T06:23:54;95918.75;;;10.40;100.00
39555;BME280;25231;48.746;9.234;2023-03-13T06:26:21;95917.41;;;10.38;100.00
39555;BME280;25231;48.746;9.234;2023-03-13T06:28:48;95929.03;;;10.47;100.00
39555;BME280;25231;48.746;9.234;2023-03-13T06:31:14;95930.16;;;10.56;100.00
39555;BME280;25231;48.746;9.234;2023-03-13T06:33:39;95933.53;;;10.52;100.00
39555;BME280;25231;48.746;9.234;2023-03-13T06:36:05;95929.44;;;10.61;100.00
39555;BME280;25231;48.746;9.234;2023-03-13T06:38:30;95929.47;;;10.66;100.00
39555;BME280;25231;48.746;9.234;2023-03-13T06:40:56;95921.66;;;10.71;100.00
39555;BME280;25231;48.746;9.234;2023-03-13T06:43:22;95915.22;;;10.83;100.00
39555;BME280;25231;48.746;9.234;2023-03-13T06:45:48;95923.91;;;10.89;100.00
39555;BME280;25231;48.746;9.234;2023-03-13T06:48:14;95926.09;;;10.97;100.00
39555;BME280;25231;48.746;9.234;2023-03-13T06:50:40;95923.00;;;11.05;100.00
39555;BME280;25231;48.746;9.234;2023-03-13T06:53:06;95935.31;;;11.05;100.00
39555;BME280;25231;48.746;9.234;2023-03-13T06:55:32;95930.63;;;11.07;100.00
39555;BME280;25231;48.746;9.234;2023-03-13T06:57:57;95924.63;;;11.11;100.00
39555;BME280;25231;48.746;9.234;2023-03-13T07:00:23;95938.78;;;11.10;100.00
39555;BME280;25231;48.746;9.234;2023-03-13T07:02:49;95945.53;;;11.01;100.00
39555;BME280;25231;48.746;9.234;2023-03-13T07:05:15;95949.22;;;11.05;100.00
39555;BME280;25231;48.746;9.234;2023-03-13T07:07:41;95937.66;;;11.01;100.00
39555;BME280;25231;48.746;9.234;2023-03-13T07:10:08;95927.94;;;10.97;100.00
39555;BME280;25231;48.746;9.234;2023-03-13T07:12:35;95955.47;;;10.99;100.00
39555;BME280;25231;48.746;9.234;2023-03-13T07:15:02;95960.50;;;11.06;100.00
39555;BME280;25231;48.746;9.234;2023-03-13T07:17:27;95957.09;;;11.05;100.00
39555;BME280;25231;48.746;9.234;2023-03-13T07:19:53;95958.91;;;11.05;100.00
39555;BME280;25231;48.746;9.234;2023-03-13T07:22:18;95956.88;;;11.81;100.00
39555;BME280;25231;48.746;9.234;2023-03-13T07:24:43;95949.34;;;11.57;100.00
39555;BME280;25231;48.746;9.234;2023-03-13T07:27:09;95953.94;;;11.35;100.00
39555;BME280;25231;48.746;9.234;2023-03-13T07:29:34;95947.63;;;11.31;100.00
39555;BME280;25231;48.746;9.234;2023-03-13T07:32:00;95945.53;;;11.38;100.00
39555;BME280;25231;48.746;9.234;2023-03-13T07:34:25;95936.31;;;11.31;100.00
39555;BME280;25231;48.746;9.234;2023-03-13T07:36:51;95932.16;;;11.35;100.00
39555;BME280;25231;48.746;9.234;2023-03-13T07:39:16;95926.91;;;11.35;100.00
39555;BME280;25231;48.746;9.234;2023-03-13T07:41:42;95923.72;;;11.33;100.00
39555;BME280;25231;48.746;9.234;2023-03-13T07:44:07;95913.25;;;11.38;100.00
39555;BME280;25231;48.746;9.234;2023-03-13T07:46:33;95924.84;;;11.42;100.00
39555;BME280;25231;48.746;9.234;2023-03-13T07:48:58;95921.94;;;11.38;100.00
39555;BME280;25231;48.746;9.234;2023-03-13T07:51:25;95932.50;;;11.48;100.00
39555;BME280;25231;48.746;9.234;2023-03-13T07:53:51;95920.50;;;11.57;100.00
39555;BME280;25231;48.746;9.234;2023-03-13T07:56:21;95912.84;;;11.51;100.00
39555;BME280;25231;48.746;9.234;2023-03-13T07:58:47;95907.88;;;11.59;100.00
39555;BME280;25231;48.746;9.234;2023-03-13T08:01:26;95896.72;;;12.46;100.00
39555;BME280;25231;48.746;9.234;2023-03-13T08:03:54;95893.94;;;12.01;100.00
39555;BME280;25231;48.746;9.234;2023-03-13T08:06:23;95898.38;;;11.95;100.00
39555;BME280;25231;48.746;9.234;2023-03-13T08:08:50;95895.72;;;11.85;100.00
39555;BME280;25231;48.746;9.234;2023-03-13T08:11:19;95896.78;;;11.89;100.00
39555;BME280;25231;48.746;9.234;2023-03-13T08:13:46;95881.56;;;11.86;100.00
39555;BME280;25231;48.746;9.234;2023-03-13T08:16:14;95871.59;;;11.93;100.00
39555;BME280;25231;48.746;9.234;2023-03-13T08:18:41;95868.72;;;12.00;100.00
39555;BME280;25231;48.746;9.234;2023-03-13T08:21:15;95860.34;;;12.03;100.00
39555;BME280;25231;48.746;9.234;2023-03-13T08:23:42;95843.06;;;12.27;100.00
39555;BME280;25231;48.746;9.234;2023-03-13T08:26:13;95844.41;;;12.50;100.00
39555;BME280;25231;48.746;9.234;2023-03-13T08:28:39;95852.03;;;12.52;100.00
39555;BME280;25231;48.746;9.234;2023-03-13T08:31:07;95846.78;;;12.62;100.00
39555;BME280;25231;48.746;9.234;2023-03-13T08:33:33;95844.16;;;12.82;100.00
39555;BME280;25231;48.746;9.234;2023-03-13T08:35:58;95847.84;;;13.06;100.00
39555;BME280;25231;48.746;9.234;2023-03-13T08:38:24;95858.63;;;13.00;100.00
39555;BME280;25231;48.746;9.234;2023-03-13T08:40:55;95859.16;;;12.97;100.00
39555;BME280;25231;48.746;9.234;2023-03-13T08:43:20;95859.94;;;12.92;100.00
39555;BME280;25231;48.746;9.234;2023-03-13T08:45:46;95846.25;;;13.00;100.00
39555;BME280;25231;48.746;9.234;2023-03-13T08:48:18;95853.34;;;13.00;100.00
39555;BME280;25231;48.746;9.234;2023-03-13T08:50:43;95847.31;;;12.99;100.00
39555;BME280;25231;48.746;9.234;2023-03-13T08:53:09;95839.69;;;13.03;100.00
39555;BME280;25231;48.746;9.234;2023-03-13T08:55:34;95841.28;;;13.04;100.00
39555;BME280;25231;48.746;9.234;2023-03-13T08:57:59;95843.34;;;13.07;100.00
39555;BME280;25231;48.746;9.234;2023-03-13T09:00:25;95841.25;;;12.93;100.00
39555;BME280;25231;48.746;9.234;2023-03-13T09:02:51;95842.81;;;13.10;100.00
39555;BME280;25231;48.746;9.234;2023-03-13T09:05:16;95847.03;;;13.21;100.00
39555;BME280;25231;48.746;9.234;2023-03-13T09:07:41;95853.09;;;13.21;100.00
39555;BME280;25231;48.746;9.234;2023-03-13T09:10:07;95845.44;;;13.35;100.00
39555;BME280;25231;48.746;9.234;2023-03-13T09:12:33;95849.38;;;13.38;100.00
39555;BME280;25231;48.746;9.234;2023-03-13T09:14:59;95850.16;;;13.48;100.00
39555;BME280;25231;48.746;9.234;2023-03-13T09:17:24;95846.50;;;13.39;100.00
39555;BME280;25231;48.746;9.234;2023-03-13T09:19:50;95854.13;;;13.41;100.00
39555;BME280;25231;48.746;9.234;2023-03-13T09:22:16;95850.97;;;13.39;99.44
39555;BME280;25231;48.746;9.234;2023-03-13T09:24:41;95843.81;;;13.49;98.91
39555;BME280;25231;48.746;9.234;2023-03-13T09:27:09;95847.25;;;13.50;98.79
39555;BME280;25231;48.746;9.234;2023-03-13T09:29:34;95845.44;;;13.40;98.88
39555;BME280;25231;48.746;9.234;2023-03-13T09:32:04;95839.84;;;13.62;99.38
39555;BME280;25231;48.746;9.234;2023-03-13T09:34:30;95849.81;;;13.75;98.73
39555;BME280;25231;48.746;9.234;2023-03-13T09:36:56;95850.03;;;13.84;97.70
39555;BME280;25231;48.746;9.234;2023-03-13T09:39:21;95858.47;;;13.86;97.13
39555;BME280;25231;48.746;9.234;2023-03-13T09:42:17;95857.44;;;13.82;97.58
39555;BME280;25231;48.746;9.234;2023-03-13T09:44:58;95863.25;;;13.68;96.63
39555;BME280;25231;48.746;9.234;2023-03-13T09:47:40;95863.22;;;13.79;96.47
39555;BME280;25231;48.746;9.234;2023-03-13T09:50:20;95867.66;;;13.88;96.23
39555;BME280;25231;48.746;9.234;2023-03-13T09:52:51;95876.34;;;13.94;95.60
39555;BME280;25231;48.746;9.234;2023-03-13T09:55:21;95879.78;;;13.84;95.35
39555;BME280;25231;48.746;9.234;2023-03-13T09:58:10;95871.50;;;14.11;94.08
39555;BME280;25231;48.746;9.234;2023-03-13T10:00:45;95876.94;;;14.40;92.53
39555;BME280;25231;48.746;9.234;2023-03-13T10:03:28;95883.22;;;14.44;91.70
39555;BME280;25231;48.746;9.234;2023-03-13T10:05:57;95871.78;;;14.64;91.29
39555;BME280;25231;48.746;9.234;2023-03-13T10:08:29;95871.88;;;14.87;89.23
39555;BME280;25231;48.746;9.234;2023-03-13T10:14:11;95855.41;;;15.01;87.41
39555;BME280;25231;48.746;9.234;2023-03-13T10:17:13;95846.06;;;15.13;86.11
39555;BME280;25231;48.746;9.234;2023-03-13T10:19:39;95838.41;;;15.12;85.03
39555;BME280;25231;48.746;9.234;2023-03-13T10:22:17;95834.06;;;15.26;83.59
39555;BME280;25231;48.746;9.234;2023-03-13T10:24:54;95823.03;;;15.19;82.74
39555;BME280;25231;48.746;9.234;2023-03-13T10:27:20;95826.63;;;15.04;82.56
39555;BME280;25231;48.746;9.234;2023-03-13T10:29:46;95826.63;;;15.04;81.78
39555;BME280;25231;48.746;9.234;2023-03-13T10:32:17;95819.41;;;15.15;82.01
39555;BME280;25231;48.746;9.234;2023-03-13T10:34:56;95819.63;;;15.18;81.35
39555;BME280;25231;48.746;9.234;2023-03-13T10:39:50;95828.22;;;15.58;79.80
39555;BME280;25231;48.746;9.234;2023-03-13T10:42:43;95822.59;;;15.64;78.92
39555;BME280;25231;48.746;9.234;2023-03-13T10:45:24;95825.72;;;15.90;78.99
39555;BME280;25231;48.746;9.234;2023-03-13T10:48:10;95825.06;;;15.79;77.83
39555;BME280;25231;48.746;9.234;2023-03-13T10:50:42;95819.81;;;15.98;76.80
39555;BME280;25231;48.746;9.234;2023-03-13T10:56:04;95811.28;;;15.83;76.63
39555;BME280;25231;48.746;9.234;2023-03-13T10:58:43;95804.28;;;15.92;77.36
39555;BME280;25231;48.746;9.234;2023-03-13T11:01:29;95792.66;;;15.93;76.86
39555;BME280;25231;48.746;9.234;2023-03-13T11:03:58;95794.16;;;15.99;77.33
39555;BME280;25231;48.746;9.234;2023-03-13T11:06:33;95794.56;;;16.06;76.58
39555;BME280;25231;48.746;9.234;2023-03-13T11:09:15;95792.22;;;16.23;75.74
39555;BME280;25231;48.746;9.234;2023-03-13T11:14:19;95791.00;;;16.53;73.69
39555;BME280;25231;48.746;9.234;2023-03-13T11:16:47;95792.31;;;16.37;74.66
39555;BME280;25231;48.746;9.234;2023-03-13T11:19:49;95789.00;;;16.63;73.47
39555;BME280;25231;48.746;9.234;2023-03-13T11:25:02;95779.56;;;17.63;69.71
39555;BME280;25231;48.746;9.234;2023-03-13T11:28:01;95762.66;;;17.73;67.91
39555;BME280;25231;48.746;9.234;2023-03-13T11:30:50;95776.41;;;17.89;67.60
39555;BME280;25231;48.746;9.234;2023-03-13T11:36:23;95744.31;;;17.49;67.79
39555;BME280;25231;48.746;9.234;2023-03-13T11:53:26;95693.19;;;17.35;69.43
39555;BME280;25231;48.746;9.234;2023-03-13T12:01:29;95677.59;;;17.33;69.47
39555;BME280;25231;48.746;9.234;2023-03-13T12:04:03;95663.47;;;17.38;69.32
39555;BME280;25231;48.746;9.234;2023-03-13T12:06:53;95650.06;;;17.21;70.37
39555;BME280;25231;48.746;9.234;2023-03-13T12:09:33;95650.56;;;17.09;69.38
39555;BME280;25231;48.746;9.234;2023-03-13T12:14:53;95645.34;;;17.31;68.45
39555;BME280;25231;48.746;9.234;2023-03-13T12:17:24;95636.47;;;17.50;67.71
39555;BME280;25231;48.746;9.234;2023-03-13T12:20:24;95632.13;;;17.67;67.33
39555;BME280;25231;48.746;9.234;2023-03-13T12:22:55;95621.09;;;17.74;66.67
39555;BME280;25231;48.746;9.234;2023-03-13T12:29:06;95589.50;;;18.00;64.19
39555;BME280;25231;48.746;9.234;2023-03-13T12:31:41;95584.50;;;17.98;64.67
39555;BME280;25231;48.746;9.234;2023-03-13T12:34:19;95579.84;;;18.04;64.18
39555;BME280;25231;48.746;9.234;2023-03-13T12:36:47;95569.34;;;18.21;63.14
39555;BME280;25231;48.746;9.234;2023-03-13T12:39:34;95576.53;;;18.29;63.01
39555;BME280;25231;48.746;9.234;2023-03-13T12:42:18;95555.00;;;18.22;63.52
39555;BME280;25231;48.746;9.234;2023-03-13T12:44:47;95534.78;;;18.12;63.84
39555;BME280;25231;48.746;9.234;2023-03-13T12:47:18;95540.31;;;18.24;62.64
39555;BME280;25231;48.746;9.234;2023-03-13T12:50:18;95533.44;;;18.23;62.15
39555;BME280;25231;48.746;9.234;2023-03-13T12:53:08;95521.03;;;18.33;61.08
39555;BME280;25231;48.746;9.234;2023-03-13T12:55:57;95515.59;;;18.46;61.26
39555;BME280;25231;48.746;9.234;2023-03-13T12:58:40;95499.41;;;18.56;59.86
39555;BME280;25231;48.746;9.234;2023-03-13T13:01:18;95500.19;;;18.57;58.44
39555;BME280;25231;48.746;9.234;2023-03-13T13:06:16;95474.44;;;18.57;58.06
39555;BME280;25231;48.746;9.234;2023-03-13T13:08:48;95470.09;;;18.79;58.02
39555;BME280;25231;48.746;9.234;2023-03-13T13:16:49;95449.81;;;19.17;55.63
39555;BME280;25231;48.746;9.234;2023-03-13T13:24:52;95436.50;;;19.43;54.32
39555;BME280;25231;48.746;9.234;2023-03-13T13:32:41;95430.41;;;19.42;53.50
39555;BME280;25231;48.746;9.234;2023-03-13T13:37:45;95422.44;;;19.51;53.73
39555;BME280;25231;48.746;9.234;2023-03-13T13:42:53;95406.84;;;19.49;53.24
39555;BME280;25231;48.746;9.234;2023-03-13T13:47:50;95394.81;;;19.26;53.58
39555;BME280;25231;48.746;9.234;2023-03-13T13:50:36;95388.56;;;19.22;53.91
39555;BME280;25231;48.746;9.234;2023-03-13T13:53:28;95379.22;;;19.16;53.75
39555;BME280;25231;48.746;9.234;2023-03-13T13:55:54;95380.13;;;19.20;54.09
39555;BME280;25231;48.746;9.234;2023-03-13T13:58:31;95367.59;;;19.29;54.12
39555;BME280;25231;48.746;9.234;2023-03-13T14:00:59;95369.78;;;19.44;53.85
39555;BME280;25231;48.746;9.234;2023-03-13T14:03:28;95363.97;;;19.60;54.19
39555;BME280;25231;48.746;9.234;2023-03-13T14:06:16;95354.72;;;19.57;54.08
39555;BME280;25231;48.746;9.234;2023-03-13T14:08:42;95355.88;;;19.39;53.92
39555;BME280;25231;48.746;9.234;2023-03-13T14:11:25;95349.00;;;19.38;54.40
39555;BME280;25231;48.746;9.234;2023-03-13T14:14:15;95341.19;;;19.33;54.59
39555;BME280;25231;48.746;9.234;2023-03-13T14:16:50;95341.16;;;19.50;54.27
39555;BME280;25231;48.746;9.234;2023-03-13T14:21:57;95337.69;;;19.58;54.55
39555;BME280;25231;48.746;9.234;2023-03-13T14:24:23;95336.31;;;19.43;54.57
39555;BME280;25231;48.746;9.234;2023-03-13T14:26:48;95323.19;;;19.47;55.13
39555;BME280;25231;48.746;9.234;2023-03-13T14:29:16;95322.16;;;19.69;54.72
39555;BME280;25231;48.746;9.234;2023-03-13T14:31:49;95318.09;;;19.71;54.91